Time;durP1;ratioP1;P1;durP2;ratioP2;P2;SDS_P1;SDS_P2;PMS_P1;PMS_P2;Temp;Humidity;BMP_temperature;BMP_pressure;BME280_temperature;BME280_humidity;BME280_pressure;Samples;Min_cycle;Max_cycle;Signal;HPM_P1;HPM_P2
2022/11/24 00:01:10;;;;;;;8.40;1.85;;;;;;;;;;4882112;29;20512;-85
2022/11/24 00:03:35;;;;;;;9.40;2.08;;;;;;;;;;4896589;29;20068;-85
2022/11/24 00:06:03;;;;;;;13.00;2.80;;;;;;;;;;4891727;29;20079;-86
2022/11/24 00:08:28;;;;;;;6.22;1.60;;;;;;;;;;4884561;29;20106;-86
2022/11/24 00:10:53;;;;;;;6.85;1.65;;;;;;;;;;4898266;29;20032;-86
2022/11/24 00:13:19;;;;;;;8.77;1.88;;;;;;;;;;4881725;29;20044;-85
2022/11/24 00:15:44;;;;;;;5.82;2.05;;;;;;;;;;4877015;29;20029;-85
2022/11/24 00:18:10;;;;;;;9.10;2.05;;;;;;;;;;4880768;29;20043;-85
2022/11/24 00:20:35;;;;;;;7.72;1.77;;;;;;;;;;4883009;29;20055;-86
2022/11/24 00:23:00;;;;;;;6.95;1.60;;;;;;;;;;4886588;29;20393;-86
2022/11/24 00:25:26;;;;;;;10.52;2.05;;;;;;;;;;4875321;29;20044;-85
2022/11/24 00:27:51;;;;;;;4.40;1.30;;;;;;;;;;4898810;29;20446;-85
2022/11/24 00:30:17;;;;;;;6.15;1.80;;;;;;;;;;4879761;29;20456;-86
2022/11/24 00:32:42;;;;;;;10.70;2.13;;;;;;;;;;4881989;29;20464;-85
2022/11/24 00:35:08;;;;;;;5.43;1.60;;;;;;;;;;4885570;29;20036;-86
2022/11/24 00:37:34;;;;;;;7.40;1.67;;;;;;;;;;4882316;29;20040;-86
2022/11/24 00:39:59;;;;;;;10.93;2.15;;;;;;;;;;4879979;29;20091;-86
2022/11/24 00:42:25;;;;;;;7.25;1.90;;;;;;;;;;4879413;29;20032;-85
2022/11/24 00:44:50;;;;;;;7.82;1.50;;;;;;;;;;4878773;29;20028;-85
2022/11/24 00:47:16;;;;;;;8.23;1.98;;;;;;;;;;4880737;29;20028;-85
2022/11/24 00:49:41;;;;;;;13.95;1.83;;;;;;;;;;4880022;29;20035;-85
2022/11/24 00:52:06;;;;;;;8.35;1.60;;;;;;;;;;4880513;29;20169;-86
2022/11/24 00:54:32;;;;;;;10.00;1.75;;;;;;;;;;4879371;29;20033;-86
2022/11/24 00:56:57;;;;;;;8.77;1.60;;;;;;;;;;4882974;29;20033;-85
2022/11/24 00:59:23;;;;;;;8.65;1.98;;;;;;;;;;4894438;29;20040;-86
2022/11/24 01:01:48;;;;;;;7.40;1.58;;;;;;;;;;4884234;29;21333;-86
2022/11/24 01:04:13;;;;;;;9.50;2.20;;;;;;;;;;4895597;29;20028;-86
2022/11/24 01:06:39;;;;;;;6.80;1.45;;;;;;;;;;4877789;29;20056;-85
2022/11/24 01:09:04;;;;;;;7.25;1.70;;;;;;;;;;4884205;29;20036;-86
2022/11/24 01:14:16;;;;;;;8.10;1.58;;;;;;;;;;4896548;29;20027;-86
2022/11/24 01:16:41;;;;;;;7.88;2.00;;;;;;;;;;4885351;29;20040;-85
2022/11/24 01:19:07;;;;;;;8.30;1.73;;;;;;;;;;4891664;29;20484;-86
2022/11/24 01:21:32;;;;;;;6.82;1.25;;;;;;;;;;4882160;29;20044;-87
2022/11/24 01:23:58;;;;;;;10.27;1.65;;;;;;;;;;4878595;29;20037;-86
2022/11/24 01:26:23;;;;;;;8.98;1.48;;;;;;;;;;4873788;29;20063;-86
2022/11/24 01:28:54;;;;;;;9.13;2.25;;;;;;;;;;4876019;29;20393;-85
2022/11/24 01:31:19;;;;;;;5.25;1.40;;;;;;;;;;4881381;29;20035;-85
2022/11/24 01:33:45;;;;;;;8.45;1.42;;;;;;;;;;4884638;29;20040;-86
2022/11/24 01:36:10;;;;;;;6.43;1.45;;;;;;;;;;4876892;29;20040;-85
2022/11/24 01:38:36;;;;;;;7.97;1.67;;;;;;;;;;4879464;29;20038;-85
2022/11/24 01:41:06;;;;;;;7.80;1.50;;;;;;;;;;4878691;29;20478;-87
2022/11/24 01:43:33;;;;;;;6.93;1.42;;;;;;;;;;4897072;29;21831;-86
2022/11/24 01:46:04;;;;;;;5.85;1.13;;;;;;;;;;4875628;29;20032;-86
2022/11/24 01:48:36;;;;;;;10.02;1.70;;;;;;;;;;4877592;29;20106;-85
2022/11/24 01:51:24;;;;;;;7.25;1.35;;;;;;;;;;4877309;29;20044;-86
2022/11/24 01:53:56;;;;;;;6.78;1.50;;;;;;;;;;4894033;29;20069;-86
2022/11/24 01:56:22;;;;;;;8.20;2.22;;;;;;;;;;4874315;29;20040;-85
2022/11/24 01:58:49;;;;;;;7.70;1.42;;;;;;;;;;4872138;29;20039;-86
2022/11/24 02:01:15;;;;;;;6.80;1.40;;;;;;;;;;4870364;29;20165;-86
2022/11/24 02:03:44;;;;;;;6.97;1.58;;;;;;;;;;4884742;29;20450;-86
2022/11/24 02:06:13;;;;;;;10.20;1.92;;;;;;;;;;4876181;29;20077;-86
2022/11/24 02:08:44;;;;;;;10.57;1.98;;;;;;;;;;4889757;29;20040;-86
2022/11/24 02:11:09;;;;;;;7.30;1.60;;;;;;;;;;4891379;29;20041;-86
2022/11/24 02:13:36;;;;;;;7.15;1.48;;;;;;;;;;4886997;29;20401;-86
2022/11/24 02:16:05;;;;;;;3.75;1.20;;;;;;;;;;4877324;29;20036;-86
2022/11/24 02:18:30;;;;;;;6.22;1.13;;;;;;;;;;4884503;29;20060;-86
2022/11/24 02:20:58;;;;;;;7.50;1.33;;;;;;;;;;4874823;29;20051;-86
2022/11/24 02:23:34;;;;;;;5.22;1.23;;;;;;;;;;4880773;29;20039;-86
2022/11/24 02:26:20;;;;;;;6.30;1.20;;;;;;;;;;4899216;29;20478;-86
2022/11/24 02:28:46;;;;;;;6.85;1.50;;;;;;;;;;4891585;29;20048;-86
2022/11/24 02:31:12;;;;;;;5.90;1.30;;;;;;;;;;4878624;29;20032;-86
2022/11/24 02:33:38;;;;;;;10.43;1.52;;;;;;;;;;4874989;29;20029;-86
2022/11/24 02:36:03;;;;;;;9.20;2.03;;;;;;;;;;4889531;29;20028;-86
2022/11/24 02:38:31;;;;;;;9.20;1.75;;;;;;;;;;4875707;29;20389;-87
2022/11/24 02:40:58;;;;;;;6.13;1.35;;;;;;;;;;4879582;29;20036;-86
2022/11/24 02:43:24;;;;;;;10.60;1.70;;;;;;;;;;4894035;29;20035;-86
2022/11/24 02:45:50;;;;;;;8.13;1.83;;;;;;;;;;4879285;29;20032;-86
2022/11/24 02:48:16;;;;;;;8.80;1.75;;;;;;;;;;4873386;29;20158;-87
2022/11/24 02:50:41;;;;;;;5.63;1.20;;;;;;;;;;4882230;29;20512;-87
2022/11/24 02:53:07;;;;;;;6.13;1.38;;;;;;;;;;4874800;29;20025;-86
2022/11/24 02:55:32;;;;;;;7.53;1.42;;;;;;;;;;4875576;29;20037;-87
2022/11/24 02:57:58;;;;;;;6.20;1.60;;;;;;;;;;4877183;29;20029;-85
2022/11/24 03:00:23;;;;;;;8.50;1.40;;;;;;;;;;4877565;29;20041;-86
2022/11/24 03:02:49;;;;;;;7.53;1.20;;;;;;;;;;4876053;29;20080;-86
2022/11/24 03:05:14;;;;;;;7.90;1.55;;;;;;;;;;4882334;29;20033;-86
2022/11/24 03:07:40;;;;;;;6.85;1.50;;;;;;;;;;4881446;29;20096;-87
2022/11/24 03:10:06;;;;;;;9.00;1.50;;;;;;;;;;4881190;29;20036;-86
2022/11/24 03:12:31;;;;;;;8.05;1.30;;;;;;;;;;4900119;29;20493;-86
2022/11/24 03:14:56;;;;;;;8.73;1.70;;;;;;;;;;4882311;29;20025;-86
2022/11/24 03:17:22;;;;;;;6.45;1.83;;;;;;;;;;4876372;29;20037;-86
2022/11/24 03:19:47;;;;;;;10.70;1.45;;;;;;;;;;4878521;29;20028;-87
2022/11/24 03:22:13;;;;;;;8.75;1.83;;;;;;;;;;4889067;29;20100;-86
2022/11/24 03:24:38;;;;;;;8.32;1.35;;;;;;;;;;4875965;29;20068;-86
2022/11/24 03:27:04;;;;;;;4.72;1.50;;;;;;;;;;4881314;29;20028;-86
2022/11/24 03:29:29;;;;;;;8.90;1.52;;;;;;;;;;4876008;29;20037;-86
2022/11/24 03:31:55;;;;;;;6.25;1.55;;;;;;;;;;4883393;29;20139;-86
2022/11/24 03:34:20;;;;;;;8.60;1.70;;;;;;;;;;4877140;29;20036;-86
2022/11/24 03:36:46;;;;;;;7.72;1.65;;;;;;;;;;4896251;29;20096;-86
2022/11/24 03:39:11;;;;;;;8.00;1.63;;;;;;;;;;4880429;29;20047;-87
2022/11/24 03:41:37;;;;;;;13.35;1.85;;;;;;;;;;4880390;29;20039;-87
2022/11/24 03:44:02;;;;;;;8.15;1.52;;;;;;;;;;4880405;29;20126;-86
2022/11/24 03:46:28;;;;;;;10.18;1.83;;;;;;;;;;4880508;29;20032;-86
2022/11/24 03:48:53;;;;;;;4.93;1.42;;;;;;;;;;4880217;29;20076;-87
2022/11/24 03:51:18;;;;;;;10.80;1.63;;;;;;;;;;4893424;29;20024;-86
2022/11/24 03:53:44;;;;;;;5.50;1.45;;;;;;;;;;4885831;29;20033;-86
2022/11/24 03:56:09;;;;;;;8.23;1.67;;;;;;;;;;4880782;29;20536;-87
2022/11/24 03:58:35;;;;;;;9.68;1.77;;;;;;;;;;4898792;29;20035;-87
2022/11/24 04:01:01;;;;;;;6.78;1.63;;;;;;;;;;4879527;29;20028;-86
2022/11/24 04:03:26;;;;;;;11.13;1.77;;;;;;;;;;4878977;29;20060;-87
2022/11/24 04:05:52;;;;;;;6.38;1.90;;;;;;;;;;4888461;29;20037;-87
2022/11/24 04:08:18;;;;;;;7.38;1.70;;;;;;;;;;4880230;29;20033;-86
2022/11/24 04:10:44;;;;;;;8.32;1.88;;;;;;;;;;4881685;29;20064;-86
2022/11/24 04:13:14;;;;;;;4.75;1.88;;;;;;;;;;4899118;29;20060;-87
2022/11/24 04:15:40;;;;;;;12.38;1.70;;;;;;;;;;4897223;29;20052;-86
2022/11/24 04:18:06;;;;;;;9.02;1.95;;;;;;;;;;4877285;29;20039;-86
2022/11/24 04:20:31;;;;;;;6.28;1.63;;;;;;;;;;4876997;29;20040;-86
2022/11/24 04:22:57;;;;;;;11.98;1.52;;;;;;;;;;4906001;29;20035;-86
2022/11/24 04:25:22;;;;;;;8.00;1.88;;;;;;;;;;4893730;29;20561;-86
2022/11/24 04:27:52;;;;;;;9.18;2.00;;;;;;;;;;4881199;29;20044;-87
2022/11/24 04:30:18;;;;;;;10.13;1.88;;;;;;;;;;4876907;29;20029;-86
2022/11/24 04:32:44;;;;;;;10.15;1.80;;;;;;;;;;4881960;29;20064;-88
2022/11/24 04:35:10;;;;;;;6.57;1.35;;;;;;;;;;4882536;29;20029;-86
2022/11/24 04:37:35;;;;;;;7.03;1.05;;;;;;;;;;4887944;29;20036;-87
2022/11/24 04:40:01;;;;;;;6.25;1.45;;;;;;;;;;4879718;29;20379;-87
2022/11/24 04:42:26;;;;;;;9.07;1.42;;;;;;;;;;4882754;29;20029;-86
2022/11/24 04:44:51;;;;;;;9.07;1.48;;;;;;;;;;4893938;29;20048;-86
2022/11/24 04:47:20;;;;;;;3.97;1.30;;;;;;;;;;4874135;29;20726;-86
2022/11/24 04:49:46;;;;;;;6.05;1.30;;;;;;;;;;4879106;29;20638;-87
2022/11/24 04:52:11;;;;;;;5.30;1.20;;;;;;;;;;4888641;29;20029;-86
2022/11/24 04:54:37;;;;;;;3.97;1.08;;;;;;;;;;4877587;29;20036;-86
2022/11/24 04:57:19;;;;;;;5.32;1.13;;;;;;;;;;4883249;29;20135;-86
2022/11/24 04:59:54;;;;;;;7.27;1.27;;;;;;;;;;4884972;29;20040;-86
2022/11/24 05:06:29;;;;;;;6.32;1.50;;;;;;;;;;4887669;29;20044;-86
2022/11/24 05:08:54;;;;;;;4.95;1.20;;;;;;;;;;4892930;29;20032;-87
2022/11/24 05:11:20;;;;;;;4.07;1.00;;;;;;;;;;4880467;29;20024;-86
2022/11/24 05:13:45;;;;;;;5.85;1.23;;;;;;;;;;4880179;29;20036;-86
2022/11/24 05:16:11;;;;;;;3.58;0.85;;;;;;;;;;4875757;29;20124;-86
2022/11/24 05:18:37;;;;;;;2.60;0.82;;;;;;;;;;4881412;29;20040;-86
2022/11/24 05:21:02;;;;;;;3.55;1.23;;;;;;;;;;4879610;29;20043;-86
2022/11/24 05:23:28;;;;;;;5.35;0.90;;;;;;;;;;4881741;29;20033;-86
2022/11/24 05:25:57;;;;;;;3.00;0.93;;;;;;;;;;4876202;29;20024;-86
2022/11/24 05:28:22;;;;;;;3.58;0.77;;;;;;;;;;4891452;29;20662;-86
2022/11/24 05:30:48;;;;;;;3.92;0.90;;;;;;;;;;4880802;29;20131;-86
2022/11/24 05:33:17;;;;;;;1.30;0.60;;;;;;;;;;4896420;29;20485;-86
2022/11/24 05:35:44;;;;;;;1.80;0.60;;;;;;;;;;4877708;29;20040;-86
2022/11/24 05:38:09;;;;;;;5.97;1.15;;;;;;;;;;4872938;29;20040;-86
2022/11/24 05:40:35;;;;;;;3.15;0.77;;;;;;;;;;4877963;29;20063;-86
2022/11/24 05:43:00;;;;;;;3.58;0.88;;;;;;;;;;4882838;29;20150;-86
2022/11/24 05:45:26;;;;;;;1.83;0.80;;;;;;;;;;4890000;29;20477;-86
2022/11/24 05:48:21;;;;;;;4.78;0.73;;;;;;;;;;4871897;29;20048;-86
2022/11/24 05:50:53;;;;;;;2.08;0.70;;;;;;;;;;4877089;29;20496;-86
2022/11/24 05:53:18;;;;;;;2.95;0.90;;;;;;;;;;4890967;29;20060;-85
2022/11/24 05:55:44;;;;;;;4.05;0.70;;;;;;;;;;4879858;29;20429;-86
2022/11/24 05:58:09;;;;;;;3.08;0.75;;;;;;;;;;4876977;29;20033;-86
2022/11/24 06:00:35;;;;;;;2.05;0.70;;;;;;;;;;4897162;29;20141;-85
2022/11/24 06:03:01;;;;;;;2.83;0.82;;;;;;;;;;4876164;29;20029;-86
2022/11/24 06:05:27;;;;;;;2.00;0.80;;;;;;;;;;4884027;29;20024;-86
2022/11/24 06:07:53;;;;;;;3.97;0.85;;;;;;;;;;4892053;29;20398;-86
2022/11/24 06:10:22;;;;;;;2.17;0.70;;;;;;;;;;4872448;29;21042;-86
2022/11/24 06:12:48;;;;;;;4.63;0.70;;;;;;;;;;4873564;29;20033;-86
2022/11/24 06:15:14;;;;;;;1.90;0.70;;;;;;;;;;4882811;29;20497;-86
2022/11/24 06:17:40;;;;;;;4.35;0.60;;;;;;;;;;4890899;29;20092;-86
2022/11/24 06:20:07;;;;;;;2.80;0.80;;;;;;;;;;4879572;29;20024;-86
2022/11/24 06:22:33;;;;;;;3.03;0.95;;;;;;;;;;4883388;29;20028;-85
2022/11/24 06:24:58;;;;;;;4.35;0.73;;;;;;;;;;4895663;29;20024;-86
2022/11/24 06:27:25;;;;;;;4.05;0.80;;;;;;;;;;4879742;29;20032;-86
2022/11/24 06:29:51;;;;;;;2.63;0.82;;;;;;;;;;4878616;29;20090;-86
2022/11/24 06:32:17;;;;;;;2.17;0.75;;;;;;;;;;4875935;29;20482;-86
2022/11/24 06:34:46;;;;;;;2.65;0.60;;;;;;;;;;4883535;29;20557;-87
2022/11/24 06:37:12;;;;;;;3.33;0.77;;;;;;;;;;4884203;29;20055;-86
2022/11/24 06:39:37;;;;;;;4.00;1.02;;;;;;;;;;4872905;29;20461;-86
2022/11/24 06:42:03;;;;;;;2.67;0.93;;;;;;;;;;4873896;29;20068;-86
2022/11/24 06:44:28;;;;;;;2.78;0.90;;;;;;;;;;4888449;29;20037;-86
2022/11/24 06:46:54;;;;;;;5.28;1.45;;;;;;;;;;4884014;29;20044;-86
2022/11/24 06:49:35;;;;;;;5.05;1.40;;;;;;;;;;4879273;29;20055;-87
2022/11/24 06:52:00;;;;;;;3.75;1.25;;;;;;;;;;4880273;29;20032;-86
2022/11/24 06:54:26;;;;;;;5.93;1.30;;;;;;;;;;4877085;29;20029;-86
2022/11/24 06:56:59;;;;;;;4.75;1.50;;;;;;;;;;4883029;29;20035;-86
2022/11/24 06:59:27;;;;;;;6.40;1.70;;;;;;;;;;4879229;29;20033;-85
2022/11/24 07:01:53;;;;;;;4.35;1.80;;;;;;;;;;4876737;29;20028;-85
2022/11/24 07:04:18;;;;;;;5.68;1.40;;;;;;;;;;4879611;29;20108;-85
2022/11/24 07:06:44;;;;;;;3.53;1.38;;;;;;;;;;4881127;29;20434;-85
2022/11/24 07:09:11;;;;;;;6.38;1.98;;;;;;;;;;4896155;29;20060;-84
2022/11/24 07:11:37;;;;;;;4.45;1.58;;;;;;;;;;4879131;29;20489;-85
2022/11/24 07:14:03;;;;;;;5.20;1.50;;;;;;;;;;4896535;29;20112;-85
2022/11/24 07:16:28;;;;;;;7.13;1.58;;;;;;;;;;4890735;29;20039;-85
2022/11/24 07:18:54;;;;;;;6.07;1.80;;;;;;;;;;4885486;29;20037;-84
2022/11/24 07:21:22;;;;;;;7.13;1.65;;;;;;;;;;4875985;29;20065;-84
2022/11/24 07:23:48;;;;;;;4.30;1.52;;;;;;;;;;4885174;29;20028;-85
2022/11/24 07:26:14;;;;;;;2.90;1.50;;;;;;;;;;4877784;29;20033;-84
2022/11/24 07:28:39;;;;;;;5.40;1.75;;;;;;;;;;4875833;29;20036;-84
2022/11/24 07:31:10;;;;;;;3.58;1.42;;;;;;;;;;4878589;29;20036;-84
2022/11/24 07:33:39;;;;;;;6.68;1.77;;;;;;;;;;4880584;29;20082;-84
2022/11/24 07:36:06;;;;;;;5.90;1.77;;;;;;;;;;4881644;29;20039;-84
2022/11/24 07:38:32;;;;;;;5.00;1.60;;;;;;;;;;4874860;29;20088;-85
2022/11/24 07:41:06;;;;;;;5.40;1.55;;;;;;;;;;4889006;29;20043;-85
2022/11/24 07:43:33;;;;;;;4.15;1.60;;;;;;;;;;4879060;29;20032;-84
2022/11/24 07:45:59;;;;;;;5.43;1.65;;;;;;;;;;4880075;29;20032;-85
2022/11/24 07:48:25;;;;;;;3.92;1.70;;;;;;;;;;4884575;29;20088;-84
2022/11/24 07:50:50;;;;;;;4.32;1.88;;;;;;;;;;4880920;29;20024;-84
2022/11/24 07:53:16;;;;;;;5.47;1.90;;;;;;;;;;4898392;29;20033;-84
2022/11/24 07:55:42;;;;;;;5.25;1.63;;;;;;;;;;4897416;29;20474;-84
2022/11/24 07:58:07;;;;;;;7.03;1.85;;;;;;;;;;4883806;29;20032;-85
2022/11/24 08:00:33;;;;;;;5.43;1.40;;;;;;;;;;4890084;29;20036;-85
2022/11/24 08:02:58;;;;;;;3.70;1.33;;;;;;;;;;4885124;29;20518;-85
2022/11/24 08:05:23;;;;;;;3.80;1.92;;;;;;;;;;4882582;29;20033;-85
2022/11/24 08:07:49;;;;;;;8.15;1.77;;;;;;;;;;4879407;29;20115;-84
2022/11/24 08:10:15;;;;;;;3.80;1.50;;;;;;;;;;4878883;29;20056;-84
2022/11/24 08:12:40;;;;;;;4.70;1.80;;;;;;;;;;4888348;29;20065;-83
2022/11/24 08:15:07;;;;;;;4.35;1.30;;;;;;;;;;4883624;29;20031;-84
2022/11/24 08:17:32;;;;;;;3.53;1.30;;;;;;;;;;4884660;29;20032;-83
2022/11/24 08:19:58;;;;;;;6.03;1.75;;;;;;;;;;4883104;29;20050;-83
2022/11/24 08:22:23;;;;;;;5.60;1.27;;;;;;;;;;4895109;29;20029;-84
2022/11/24 08:24:50;;;;;;;8.38;1.52;;;;;;;;;;4883149;29;20036;-84
2022/11/24 08:27:16;;;;;;;4.40;1.52;;;;;;;;;;4882594;29;20043;-84
2022/11/24 08:29:42;;;;;;;6.13;1.45;;;;;;;;;;4888787;29;20063;-83
2022/11/24 08:32:08;;;;;;;6.28;1.10;;;;;;;;;;4881942;29;20032;-84
2022/11/24 08:34:34;;;;;;;5.88;0.98;;;;;;;;;;4880126;29;20758;-85
2022/11/24 08:36:59;;;;;;;6.22;1.17;;;;;;;;;;4879493;29;20039;-84
2022/11/24 08:39:24;;;;;;;7.90;1.30;;;;;;;;;;4899294;29;20053;-84
2022/11/24 08:41:50;;;;;;;3.33;0.93;;;;;;;;;;4879545;29;20064;-83
2022/11/24 08:44:17;;;;;;;3.63;0.98;;;;;;;;;;4882190;29;20473;-84
2022/11/24 08:46:43;;;;;;;4.68;1.00;;;;;;;;;;4882087;29;20099;-83
2022/11/24 08:49:09;;;;;;;4.63;1.02;;;;;;;;;;4880241;29;20553;-84
2022/11/24 08:51:35;;;;;;;4.47;1.02;;;;;;;;;;4884846;29;20047;-84
2022/11/24 08:54:00;;;;;;;6.13;1.10;;;;;;;;;;4883095;29;20397;-84
2022/11/24 08:56:27;;;;;;;5.55;1.63;;;;;;;;;;4881176;29;20497;-84
2022/11/24 08:58:54;;;;;;;3.15;1.10;;;;;;;;;;4883645;29;20106;-84
2022/11/24 09:01:20;;;;;;;3.97;1.25;;;;;;;;;;4887131;29;20029;-84
2022/11/24 09:03:47;;;;;;;4.57;1.30;;;;;;;;;;4880666;29;20485;-84
2022/11/24 09:06:13;;;;;;;5.68;1.40;;;;;;;;;;4879669;29;20150;-84
2022/11/24 09:08:38;;;;;;;6.25;1.52;;;;;;;;;;4873589;29;20124;-84
2022/11/24 09:11:12;;;;;;;6.45;1.30;;;;;;;;;;4875003;29;20136;-84
2022/11/24 09:13:37;;;;;;;;;;;;;;;;;;4879360;29;20028;-84
2022/11/24 09:16:12;;;;;;;9.77;1.35;;;;;;;;;;4894901;29;19926;-83
2022/11/24 09:18:37;;;;;;;5.40;1.13;;;;;;;;;;4880923;29;20039;-84
2022/11/24 09:21:18;;;;;;;4.05;1.23;;;;;;;;;;4878792;29;20952;-84
2022/11/24 09:23:47;;;;;;;5.75;1.10;;;;;;;;;;4881480;29;20024;-84
2022/11/24 09:26:14;;;;;;;5.82;1.25;;;;;;;;;;4876312;29;20059;-85
2022/11/24 09:28:40;;;;;;;8.02;1.33;;;;;;;;;;4882345;29;20040;-84
2022/11/24 09:31:09;;;;;;;6.40;1.20;;;;;;;;;;4879378;29;20037;-85
2022/11/24 09:33:36;;;;;;;5.72;1.15;;;;;;;;;;4888491;29;20079;-84
2022/11/24 09:36:02;;;;;;;6.20;1.80;;;;;;;;;;4881936;29;20808;-85
2022/11/24 09:38:28;;;;;;;3.40;1.05;;;;;;;;;;4897014;29;20029;-84
2022/11/24 09:40:54;;;;;;;6.65;1.40;;;;;;;;;;4900944;29;20086;-84
2022/11/24 09:43:50;;;;;;;4.93;1.20;;;;;;;;;;4886070;29;20028;-85
2022/11/24 09:46:24;;;;;;;7.93;1.38;;;;;;;;;;4862199;29;20047;-84
2022/11/24 09:48:53;;;;;;;5.85;1.70;;;;;;;;;;4882133;29;20060;-84
2022/11/24 09:51:23;;;;;;;6.05;1.48;;;;;;;;;;4884189;29;20064;-85
2022/11/24 09:54:00;;;;;;;9.25;1.48;;;;;;;;;;4884683;29;20157;-85
2022/11/24 09:56:28;;;;;;;4.88;1.33;;;;;;;;;;4873782;29;20037;-85
2022/11/24 09:58:59;;;;;;;5.40;1.45;;;;;;;;;;4877866;29;20119;-85
2022/11/24 10:01:29;;;;;;;5.13;1.42;;;;;;;;;;4878824;29;20040;-84
2022/11/24 10:03:55;;;;;;;3.88;1.10;;;;;;;;;;4895389;29;20446;-85
2022/11/24 10:06:56;;;;;;;5.15;1.17;;;;;;;;;;4901229;29;20043;-84
2022/11/24 10:09:52;;;;;;;4.82;1.27;;;;;;;;;;4867773;29;20106;-85
2022/11/24 10:12:33;;;;;;;10.45;1.65;;;;;;;;;;4893179;29;20036;-84
2022/11/24 10:15:04;;;;;;;8.85;1.40;;;;;;;;;;4880184;29;20025;-84
2022/11/24 10:17:55;;;;;;;7.95;1.17;;;;;;;;;;4898005;29;20449;-84
2022/11/24 10:20:29;;;;;;;6.38;1.25;;;;;;;;;;4889279;29;20489;-84
2022/11/24 10:23:26;;;;;;;5.40;1.30;;;;;;;;;;4890839;29;20446;-85
2022/11/24 10:26:10;;;;;;;7.45;1.55;;;;;;;;;;4878135;29;20116;-84
2022/11/24 10:28:47;;;;;;;7.13;1.70;;;;;;;;;;4880321;29;20380;-85
2022/11/24 10:31:33;;;;;;;9.85;1.80;;;;;;;;;;4879623;29;20103;-84
2022/11/24 10:34:32;;;;;;;9.02;1.40;;;;;;;;;;4879568;29;20024;-84
2022/11/24 10:37:09;;;;;;;7.57;1.40;;;;;;;;;;4877339;29;20074;-85
2022/11/24 10:39:39;;;;;;;10.20;1.67;;;;;;;;;;4876674;29;20123;-85
2022/11/24 10:42:19;;;;;;;7.03;1.50;;;;;;;;;;4896117;29;20072;-84
2022/11/24 10:44:45;;;;;;;8.82;1.60;;;;;;;;;;4892622;29;20035;-86
2022/11/24 10:47:18;;;;;;;8.00;1.63;;;;;;;;;;4896772;29;20029;-85
2022/11/24 10:49:59;;;;;;;10.15;2.25;;;;;;;;;;4899253;29;20024;-85
2022/11/24 10:52:27;;;;;;;8.05;1.55;;;;;;;;;;4900544;29;20100;-85
2022/11/24 10:54:58;;;;;;;6.70;1.58;;;;;;;;;;4885344;29;20123;-85
2022/11/24 10:57:44;;;;;;;8.75;1.38;;;;;;;;;;4883348;29;20032;-84
2022/11/24 11:00:18;;;;;;;10.98;1.42;;;;;;;;;;4893677;29;20047;-83
2022/11/24 11:02:46;;;;;;;9.07;1.50;;;;;;;;;;4876981;29;20028;-85
2022/11/24 11:05:30;;;;;;;8.65;1.63;;;;;;;;;;4890907;29;20044;-84
2022/11/24 11:08:19;;;;;;;6.78;1.60;;;;;;;;;;4872788;29;20120;-85
2022/11/24 11:10:50;;;;;;;7.82;1.70;;;;;;;;;;4880646;29;20029;-85
2022/11/24 11:13:29;;;;;;;9.52;2.00;;;;;;;;;;4882497;29;20033;-85
2022/11/24 11:15:56;;;;;;;10.35;1.90;;;;;;;;;;4876861;29;20032;-85
2022/11/24 11:18:31;;;;;;;7.38;1.48;;;;;;;;;;4880466;29;20442;-85
2022/11/24 11:21:03;;;;;;;10.25;1.70;;;;;;;;;;4879622;29;20039;-86
2022/11/24 11:23:32;;;;;;;12.45;1.67;;;;;;;;;;4878513;29;20036;-85
2022/11/24 11:26:38;;;;;;;10.23;1.70;;;;;;;;;;4879392;29;20036;-85
2022/11/24 11:29:18;;;;;;;9.10;1.80;;;;;;;;;;4822801;29;20042;-85
2022/11/24 11:31:59;;;;;;;10.27;1.70;;;;;;;;;;4876671;29;20478;-85
2022/11/24 11:34:26;;;;;;;6.97;1.75;;;;;;;;;;4882821;29;20028;-84
2022/11/24 11:36:53;;;;;;;10.82;1.85;;;;;;;;;;4881724;29;20434;-85
2022/11/24 11:39:33;;;;;;;8.05;1.58;;;;;;;;;;4883051;29;20025;-85
2022/11/24 11:42:21;;;;;;;6.22;1.42;;;;;;;;;;4887746;29;20080;-85
2022/11/24 11:45:16;;;;;;;7.25;1.73;;;;;;;;;;4876680;29;20036;-84
2022/11/24 11:47:47;;;;;;;6.97;1.90;;;;;;;;;;4864730;29;20450;-85
2022/11/24 11:50:14;;;;;;;8.38;1.50;;;;;;;;;;4898447;29;20382;-85
2022/11/24 11:53:01;;;;;;;5.10;1.52;;;;;;;;;;4888409;29;20032;-85
2022/11/24 11:55:44;;;;;;;11.02;1.75;;;;;;;;;;4893664;29;20111;-86
2022/11/24 11:58:40;;;;;;;6.70;1.58;;;;;;;;;;4894931;29;20060;-85
2022/11/24 12:01:25;;;;;;;8.32;1.58;;;;;;;;;;4887252;29;20159;-86
2022/11/24 12:04:03;;;;;;;6.32;1.50;;;;;;;;;;4881437;29;21719;-86
2022/11/24 12:06:46;;;;;;;11.70;1.92;;;;;;;;;;4896436;29;20387;-86
2022/11/24 12:09:40;;;;;;;8.77;1.60;;;;;;;;;;4878090;29;20041;-86
2022/11/24 12:12:27;;;;;;;9.50;1.45;;;;;;;;;;4886645;29;20460;-86
2022/11/24 12:15:04;;;;;;;9.73;1.40;;;;;;;;;;4899363;29;20500;-86
2022/11/24 12:17:41;;;;;;;10.50;1.73;;;;;;;;;;4900011;29;20481;-86
2022/11/24 12:20:40;;;;;;;4.97;1.50;;;;;;;;;;4884423;29;20141;-86
2022/11/24 12:23:17;;;;;;;6.72;1.60;;;;;;;;;;4902588;29;20119;-86
2022/11/24 12:26:17;;;;;;;7.15;1.50;;;;;;;;;;4883352;29;20111;-85
2022/11/24 12:28:59;;;;;;;12.35;2.05;;;;;;;;;;4888146;29;20073;-86
2022/11/24 12:31:38;;;;;;;8.85;1.85;;;;;;;;;;4881667;29;20382;-86
2022/11/24 12:34:13;;;;;;;10.27;1.92;;;;;;;;;;4886953;29;20036;-86
2022/11/24 12:37:03;;;;;;;9.07;2.17;;;;;;;;;;4899918;29;20036;-86
2022/11/24 12:39:55;;;;;;;10.38;1.50;;;;;;;;;;4884123;29;20043;-86
2022/11/24 12:42:35;;;;;;;7.80;1.60;;;;;;;;;;4871818;29;20032;-86
2022/11/24 12:45:15;;;;;;;8.70;1.80;;;;;;;;;;4888069;29;20083;-86
2022/11/24 12:48:08;;;;;;;6.20;1.40;;;;;;;;;;4875073;29;20530;-86
2022/11/24 12:50:38;;;;;;;7.47;1.47;;;;;;;;;;4872917;29;20040;-87
2022/11/24 12:53:16;;;;;;;8.70;1.35;;;;;;;;;;4881811;29;20036;-86
2022/11/24 12:55:43;;;;;;;7.15;1.40;;;;;;;;;;4884733;29;20021;-88
2022/11/24 12:58:35;;;;;;;5.88;1.52;;;;;;;;;;4881764;29;20036;-86
2022/11/24 13:01:28;;;;;;;5.57;1.52;;;;;;;;;;4894104;29;20389;-86
2022/11/24 13:04:05;;;;;;;10.25;1.45;;;;;;;;;;4887409;29;20486;-86
2022/11/24 13:06:46;;;;;;;8.43;1.48;;;;;;;;;;4877441;29;20169;-85
2022/11/24 13:09:12;;;;;;;6.15;1.38;;;;;;;;;;4887580;29;20056;-85
2022/11/24 13:11:39;;;;;;;5.43;1.40;;;;;;;;;;4882075;29;20124;-86
2022/11/24 13:14:21;;;;;;;10.98;1.50;;;;;;;;;;4899978;29;20487;-86
2022/11/24 13:16:52;;;;;;;9.20;1.40;;;;;;;;;;4882303;29;20107;-85
2022/11/24 13:19:24;;;;;;;9.25;1.42;;;;;;;;;;4886555;29;20461;-86
2022/11/24 13:22:06;;;;;;;6.13;1.33;;;;;;;;;;4879114;29;20056;-86
2022/11/24 13:24:36;;;;;;;8.35;1.63;;;;;;;;;;4898901;29;20038;-86
2022/11/24 13:27:14;;;;;;;9.02;1.48;;;;;;;;;;4879740;29;20545;-85
2022/11/24 13:29:41;;;;;;;11.05;2.25;;;;;;;;;;4890508;29;20040;-86
2022/11/24 13:32:18;;;;;;;6.85;1.38;;;;;;;;;;4886182;29;20031;-85
2022/11/24 13:34:53;;;;;;;9.98;1.63;;;;;;;;;;4880407;29;20047;-85
2022/11/24 13:37:22;;;;;;;10.02;1.90;;;;;;;;;;4899170;29;20036;-86
2022/11/24 13:39:52;;;;;;;4.93;1.40;;;;;;;;;;4904594;29;20068;-85
2022/11/24 13:42:19;;;;;;;9.90;1.33;;;;;;;;;;4895104;29;20092;-86
2022/11/24 13:44:49;;;;;;;5.68;1.20;;;;;;;;;;4877682;29;20127;-85
2022/11/24 13:47:41;;;;;;;6.82;1.40;;;;;;;;;;4882314;29;20028;-86
2022/11/24 13:50:27;;;;;;;11.48;1.98;;;;;;;;;;4896248;29;20024;-85
2022/11/24 13:53:05;;;;;;;6.45;1.60;;;;;;;;;;4868417;29;20401;-86
2022/11/24 13:55:39;;;;;;;5.93;1.65;;;;;;;;;;4883056;29;20187;-85
2022/11/24 13:58:33;;;;;;;7.00;1.30;;;;;;;;;;4876694;29;20032;-86
2022/11/24 14:01:07;;;;;;;7.18;1.40;;;;;;;;;;4879770;29;20032;-85
2022/11/24 14:03:37;;;;;;;8.23;1.35;;;;;;;;;;4878032;29;20478;-85
2022/11/24 14:06:03;;;;;;;6.57;1.20;;;;;;;;;;4897534;29;20085;-85
2022/11/24 14:08:35;;;;;;;7.18;1.30;;;;;;;;;;4892628;29;20037;-84
2022/11/24 14:11:02;;;;;;;8.05;1.48;;;;;;;;;;4907982;29;20492;-85
2022/11/24 14:13:30;;;;;;;10.93;1.63;;;;;;;;;;4895567;29;20544;-85
2022/11/24 14:16:08;;;;;;;8.95;1.63;;;;;;;;;;4882034;29;20393;-86
2022/11/24 14:18:38;;;;;;;10.25;1.67;;;;;;;;;;4895284;29;20032;-85
2022/11/24 14:21:18;;;;;;;12.90;1.55;;;;;;;;;;4881612;29;20035;-85
2022/11/24 14:23:49;;;;;;;8.55;1.77;;;;;;;;;;4877579;29;20043;-85
2022/11/24 14:26:21;;;;;;;5.18;1.23;;;;;;;;;;4879266;29;20485;-85
2022/11/24 14:28:47;;;;;;;9.88;1.52;;;;;;;;;;4878820;29;20029;-85
2022/11/24 14:31:24;;;;;;;6.68;1.30;;;;;;;;;;4866713;29;20055;-85
2022/11/24 14:34:05;;;;;;;8.20;1.60;;;;;;;;;;4905026;29;20554;-85
2022/11/24 14:36:31;;;;;;;7.63;1.40;;;;;;;;;;4875767;29;20033;-86
2022/11/24 14:38:56;;;;;;;6.50;1.40;;;;;;;;;;4879649;29;20043;-85
2022/11/24 14:41:27;;;;;;;7.22;1.10;;;;;;;;;;4892430;29;20044;-85
2022/11/24 14:44:07;;;;;;;6.40;1.33;;;;;;;;;;4875982;29;20024;-84
2022/11/24 14:46:34;;;;;;;8.90;1.60;;;;;;;;;;4884972;29;20024;-84
2022/11/24 14:49:01;;;;;;;12.43;3.05;;;;;;;;;;4884896;29;20100;-85
2022/11/24 14:51:29;;;;;;;10.45;1.80;;;;;;;;;;4874496;29;20458;-84
2022/11/24 14:57:50;;;;;;;8.15;1.60;;;;;;;;;;4878027;29;20048;-85
2022/11/24 15:01:10;;;;;;;;;;;;;;;;;;;;;
2022/11/24 15:03:38;;;;;;;6.10;1.30;;;;;;;;;;4895647;29;20040;-85
2022/11/24 15:06:25;;;;;;;4.10;1.13;;;;;;;;;;4891334;29;20124;-85
2022/11/24 15:09:42;;;;;;;;;;;;;;;;;;;;;
2022/11/24 15:12:27;;;;;;;4.85;1.08;;;;;;;;;;4888475;29;20047;-84
2022/11/24 15:18:36;;;;;;;8.38;1.50;;;;;;;;;;4887703;29;20048;-84